Terminal Aerodrome Forecast
Issued by NWS Binghamton, NY

Home | Current Version | Previous Version | Text Only | Print | Product List | Glossary On
Versions: 1 2 3 4 5 6 7 8 9 10 11 12 13 14 15 16 17 18 19
147
FTUS41 KBGM 111738
TAFAVP
TAF
KAVP 111738Z 1118/1218 30016G24KT P6SM BKN050
      TEMPO 1118/1121 -SHSN
     FM120200 27010KT P6SM SCT050
     FM120900 23006KT P6SM SCT250=

USA.gov is the U.S. government's official web portal to all federal, state and local government web resources and services.